Natalia, TX (78059)

12:12 AM CST on January 27, 2015 (GMT -0600)
Lytle, Atascosa County | Change Station
CLOSE
Current Station
Personal Weather Station
Location: Lytle, TX
Elevation: 712 ft
Nearby Weather Stations

Elev 712 ft 29.23 °N, 98.76 °W | Updated 14 minutes ago

Clear
Clear
52.9 °F
Feels Like 52.9 °F
N
0.0
Wind Variable Wind from WNW
Gusts 1.0 mph

Today
High -- | Low -- °F
--% Chance of Precip.
Yesterday
High -- | Low -- °F
Precip. -- in
7:27 AM 6:09 PM
Waxing Crescent, 51% visible
Pressure 30.22 in
Visibility 10.0 miles
Clouds Clear
Dew Point 39 °F
Humidity 60%
Rainfall 0.00 in
Snow Depth Not available.
UV 0 out of 12
Pollen 8.00 out of 12
Air Quality Not available.
Flu Activity Not available.
METAR KCVB 270555Z AUTO 34003KT 10SM CLR 09/04 A3022 RMK AO2 T00860036 10175 20085 402380045

More Conditions Fewer Conditions

Pressure 30.22 in
Visibility 10.0 miles
Clouds Clear
Dew Point 39 °F
Humidity 60%
Rainfall 0.00 in
Snow Depth Not available.
UV 0 out of 12
Pollen 8.00 out of 12
Air Quality Not available.
Flu Activity Not available.
METAR KCVB 270555Z AUTO 34003KT 10SM CLR 09/04 A3022 RMK AO2 T00860036 10175 20085 402380045

More Conditions Fewer Conditions

10-Day Weather Forecast

Almanac

Astronomy

Jan. 27, 2015 Rise Set
Actual Time
Civil Twilight
Nautical Twilight
Astronomical Twilight
Moon
Length of Visible Light
Length of Day
Tomorrow will be .
, % of the Moon is Illuminated

Today's Extremes

State Highs State Lows

Community

WunderPhotos

Upload Photos

1,790,542 photos uploaded!

WunderBlogs® & News

Nearby

Air Quality

  Air Quality AQ Index Pollutant
Not available.

Snow Depth

Station Depth Elevation

Earthquake Activity

City Distance Mag. Time & Date
Minimum magnitude displayed is 2.5.

Coastal Water Temperatures

Place Temperature

Nearby Weather Stations